createdAt,value
2018-07-06T00:21:57.793Z,4.10
2018-07-06T00:30:39.907Z,3.53
2018-07-06T00:48:21.380Z,2.97
2018-07-06T00:56:56.128Z,4.50
2018-07-06T01:01:08.118Z,3.47
2018-07-06T01:09:45.926Z,3.37
2018-07-06T01:13:54.109Z,3.10
2018-07-06T01:22:25.666Z,4.63
2018-07-06T01:26:37.462Z,3.17
2018-07-06T01:30:43.658Z,6.30
2018-07-06T01:34:58.140Z,3.60
2018-07-06T01:39:07.459Z,3.57
2018-07-06T01:47:40.496Z,4.70
2018-07-06T01:52:01.446Z,4.13
2018-07-06T01:56:09.551Z,3.17
2018-07-06T02:00:23.727Z,8.70
2018-07-06T02:04:32.688Z,4.70
2018-07-06T02:08:41.243Z,4.73
2018-07-06T02:13:03.480Z,4.10
2018-07-06T02:29:56.214Z,3.87
2018-07-06T02:34:06.735Z,4.57
2018-07-06T02:42:33.281Z,11.68
2018-07-06T02:46:42.048Z,4.20
2018-07-06T02:50:56.599Z,5.17
2018-07-06T02:55:06.318Z,5.13
2018-07-06T02:59:16.567Z,4.37
2018-07-06T03:07:35.572Z,4.37
2018-07-06T03:11:42.296Z,6.40
2018-07-06T03:15:49.767Z,4.80
2018-07-06T03:19:55.113Z,5.60
2018-07-06T03:24:01.945Z,6.40
2018-07-06T03:28:14.715Z,5.90
2018-07-06T03:32:26.297Z,5.07
2018-07-06T03:36:33.048Z,5.70
2018-07-06T03:40:40.371Z,5.27
2018-07-06T03:44:46.754Z,6.30
2018-07-06T03:48:55.077Z,5.20
2018-07-06T03:53:02.845Z,6.30
2018-07-06T03:57:06.927Z,5.50
2018-07-06T04:01:19.202Z,6.97
2018-07-06T04:05:29.123Z,9.90
2018-07-06T04:09:38.787Z,5.90
2018-07-06T04:22:25.895Z,6.72
2018-07-06T04:26:40.913Z,6.83
2018-07-06T04:31:03.022Z,6.67
2018-07-06T04:39:27.346Z,5.87
2018-07-06T04:43:35.651Z,7.47
2018-07-06T04:47:43.341Z,6.33
2018-07-06T05:13:12.396Z,8.10
2018-07-06T05:17:14.897Z,10.07
2018-07-06T05:21:21.357Z,13.90
2018-07-06T05:25:29.633Z,11.77
2018-07-06T05:33:50.387Z,10.17
2018-07-06T05:37:58.687Z,13.20
2018-07-06T05:42:04.607Z,13.27
2018-07-06T05:46:11.618Z,10.73
2018-07-06T05:50:17.374Z,11.83
2018-07-06T05:54:23.341Z,10.33
2018-07-06T05:58:29.053Z,10.23
2018-07-06T06:02:34.233Z,12.33
2018-07-06T06:06:41.217Z,10.67
2018-07-06T06:10:38.367Z,13.93
2018-07-06T06:14:37.999Z,14.60
2018-07-06T06:18:33.959Z,12.77
2018-07-06T06:22:28.644Z,12.65
2018-07-06T06:26:27.925Z,14.70
2018-07-06T06:30:37.236Z,14.83
2018-07-06T06:34:39.306Z,13.30
2018-07-06T06:47:23.827Z,11.67
2018-07-06T06:51:18.145Z,14.07
2018-07-06T07:04:40.175Z,13.00
2018-07-06T07:08:35.179Z,15.40
2018-07-06T07:12:50.694Z,11.63
2018-07-06T07:21:19.791Z,11.60
2018-07-06T07:29:55.523Z,10.17
2018-07-06T07:44:21.170Z,9.37
2018-07-06T07:48:43.854Z,10.00
2018-07-06T07:57:14.129Z,12.53
2018-07-06T08:01:38.731Z,10.47
2018-07-06T08:23:45.415Z,9.73
2018-07-06T08:38:09.394Z,9.93
2018-07-06T08:42:09.177Z,11.20
2018-07-06T08:46:28.451Z,11.90
2018-07-06T08:54:57.021Z,7.90
2018-07-06T09:12:16.562Z,12.20
2018-07-06T09:16:30.050Z,7.37
2018-07-06T09:20:30.905Z,14.70
2018-07-06T09:55:46.131Z,8.47
2018-07-06T09:59:43.516Z,11.00
2018-07-06T10:16:40.925Z,8.70
2018-07-06T10:20:41.286Z,7.83
2018-07-06T10:24:38.760Z,9.03
2018-07-06T10:30:54.646Z,8.57
2018-07-06T10:35:00.066Z,12.27
2018-07-06T10:39:03.101Z,7.83
2018-07-06T10:47:25.026Z,6.53
2018-07-06T10:51:39.318Z,9.97
2018-07-06T10:55:41.341Z,7.20
2018-07-06T10:59:42.144Z,6.20
2018-07-06T11:08:18.494Z,11.20
2018-07-06T11:12:55.512Z,8.33
2018-07-06T11:25:36.460Z,10.17
2018-07-06T11:34:02.317Z,9.63
2018-07-06T11:42:37.556Z,5.43
2018-07-06T11:46:51.916Z,9.60
2018-07-06T11:50:55.098Z,5.90
2018-07-06T11:54:53.217Z,5.20
2018-07-06T11:58:49.686Z,7.83
2018-07-06T12:02:45.367Z,5.17
2018-07-06T12:10:54.464Z,6.13
2018-07-06T12:15:13.249Z,6.47
2018-07-06T12:23:24.766Z,10.90
2018-07-06T12:27:25.080Z,9.00
2018-07-06T12:31:33.583Z,10.90
2018-07-06T12:35:29.837Z,6.25
2018-07-06T12:39:28.092Z,6.50
2018-07-06T12:43:27.577Z,4.60
2018-07-06T12:47:27.314Z,5.45
2018-07-06T12:51:23.507Z,6.60
2018-07-06T12:55:19.708Z,4.30
2018-07-06T12:59:15.984Z,3.98
2018-07-06T13:03:11.639Z,4.73
2018-07-06T13:07:07.101Z,5.73
2018-07-06T13:11:06.796Z,4.23
2018-07-06T13:15:07.617Z,9.60
2018-07-06T13:19:15.834Z,3.17
2018-07-06T13:23:09.791Z,4.58
2018-07-06T13:35:24.895Z,3.22
2018-07-06T13:39:22.058Z,4.22
2018-07-06T13:43:18.246Z,4.05
2018-07-06T13:47:13.302Z,3.12
2018-07-06T13:51:14.193Z,4.22
2018-07-06T13:55:09.980Z,3.77
2018-07-06T13:59:05.535Z,3.08
2018-07-06T14:03:01.534Z,7.78
2018-07-06T14:15:52.419Z,3.35
2018-07-06T14:20:14.344Z,5.12
2018-07-06T14:33:15.295Z,3.60
2018-07-06T14:37:33.563Z,5.00
2018-07-06T14:41:41.060Z,5.37
2018-07-06T14:45:36.637Z,8.45
2018-07-06T14:49:49.083Z,3.12
2018-07-06T14:53:57.231Z,4.87
2018-07-06T15:07:14.935Z,5.13
2018-07-06T15:11:14.133Z,5.00
2018-07-06T15:15:19.413Z,4.95
2018-07-06T15:19:27.349Z,3.30
2018-07-06T15:27:43.683Z,3.87
2018-07-06T15:31:39.341Z,3.73
2018-07-06T15:44:02.530Z,6.30
2018-07-06T15:48:04.555Z,3.45
2018-07-06T15:52:11.659Z,3.07
2018-07-06T15:56:39.388Z,3.20
2018-07-06T16:00:36.315Z,2.92
2018-07-06T16:08:34.558Z,4.95
2018-07-06T16:12:31.511Z,2.73
2018-07-06T16:16:27.987Z,2.92
2018-07-06T16:20:22.699Z,2.77
2018-07-06T16:24:20.986Z,3.67
2018-07-06T16:28:19.079Z,2.92
2018-07-06T16:32:19.353Z,6.97
2018-07-06T16:36:15.927Z,3.83
2018-07-06T16:40:11.450Z,4.03
2018-07-06T16:44:08.493Z,2.70
2018-07-06T16:48:09.887Z,5.12
2018-07-06T16:52:06.633Z,4.40
2018-07-06T16:56:03.523Z,2.70
2018-07-06T17:00:01.614Z,4.23
2018-07-06T17:03:58.895Z,4.80
2018-07-06T17:11:58.991Z,3.23
2018-07-06T17:16:01.121Z,2.77
2018-07-06T17:24:29.531Z,3.07
2018-07-06T17:36:56.533Z,5.40
2018-07-06T17:45:10.719Z,4.27
2018-07-06T17:49:16.940Z,4.47
2018-07-06T17:53:25.920Z,6.67
2018-07-06T18:03:33.120Z,3.97
2018-07-06T18:07:40.134Z,3.40
2018-07-06T18:16:18.877Z,3.60
2018-07-06T18:20:13.495Z,4.03
2018-07-06T18:24:19.785Z,3.57
2018-07-06T18:28:24.635Z,3.30
2018-07-06T18:45:31.014Z,4.53
2018-07-06T19:03:20.251Z,3.83
2018-07-06T19:13:14.906Z,2.80
2018-07-06T19:26:02.720Z,2.80
2018-07-06T19:30:08.800Z,4.80
2018-07-06T19:38:13.663Z,2.93
2018-07-06T19:46:20.758Z,3.43
2018-07-06T19:50:21.651Z,3.93
2018-07-06T19:54:24.330Z,4.27
2018-07-06T20:02:28.040Z,3.10
2018-07-06T20:06:31.067Z,5.07
2018-07-06T20:10:29.047Z,4.00
2018-07-06T20:14:25.434Z,5.43
2018-07-06T20:22:46.120Z,4.70
2018-07-06T20:26:53.694Z,5.10
2018-07-06T20:30:58.890Z,5.30
2018-07-06T20:34:55.779Z,5.77
2018-07-06T20:43:10.864Z,13.03
2018-07-06T20:50:35.762Z,10.07
2018-07-06T20:59:01.783Z,5.83
2018-07-06T21:16:50.605Z,7.93
2018-07-06T21:20:58.251Z,8.10
2018-07-06T21:33:44.253Z,5.57
2018-07-06T21:37:56.462Z,4.87
2018-07-06T21:42:06.028Z,4.70
2018-07-06T21:46:12.728Z,6.03
2018-07-06T21:50:15.219Z,5.10
2018-07-06T21:54:13.607Z,3.23
2018-07-06T21:58:26.883Z,6.27
2018-07-06T22:02:34.377Z,3.90
2018-07-06T22:06:39.148Z,5.93
2018-07-06T22:10:40.116Z,3.47
2018-07-06T22:32:53.328Z,5.53
2018-07-06T22:50:26.260Z,5.70
2018-07-06T22:55:01.392Z,5.20
2018-07-06T23:03:28.711Z,2.93
2018-07-06T23:34:24.066Z,2.70
2018-07-06T23:47:17.908Z,2.63
2018-07-06T23:51:37.933Z,3.67
2018-07-06T23:56:14.111Z,3.63
